Time;durP1;ratioP1;P1;durP2;ratioP2;P2;SDS_P1;SDS_P2;PMS_P1;PMS_P2;Temp;Humidity;BMP_temperature;BMP_pressure;BME280_temperature;BME280_humidity;BME280_pressure;Samples;Min_cycle;Max_cycle;Signal;HPM_P1;HPM_P2
2023/09/27 00:01:43;;;;;;;25.85;22.98;;;14.90;89.50;;;;;;5120303;27;20055;-81
2023/09/27 00:04:09;;;;;;;24.75;22.05;;;14.90;89.50;;;;;;5137088;27;20038;-79
2023/09/27 00:06:35;;;;;;;24.10;21.50;;;14.90;89.60;;;;;;5120000;27;20043;-79
2023/09/27 00:09:02;;;;;;;25.30;22.65;;;14.80;89.70;;;;;;5119903;27;20034;-78
2023/09/27 00:11:28;;;;;;;23.83;21.45;;;14.80;89.80;;;;;;5103145;27;20049;-78
2023/09/27 00:13:53;;;;;;;24.05;21.58;;;14.70;89.70;;;;;;5120087;27;20043;-78
2023/09/27 00:16:19;;;;;;;25.20;22.60;;;14.70;89.80;;;;;;5137121;27;20390;-80
2023/09/27 00:18:45;;;;;;;25.00;22.58;;;14.70;89.80;;;;;;5102701;27;20042;-79
2023/09/27 00:21:11;;;;;;;24.15;20.52;;;14.60;89.80;;;;;;5134035;27;20042;-80
2023/09/27 00:23:37;;;;;;;21.35;18.90;;;14.60;89.80;;;;;;5161568;27;20064;-80
2023/09/27 00:26:02;;;;;;;26.73;19.67;;;14.60;89.90;;;;;;5147459;27;20026;-77
2023/09/27 00:28:28;;;;;;;23.00;20.70;;;14.60;89.90;;;;;;5147416;27;20045;-80
2023/09/27 00:30:54;;;;;;;22.75;20.45;;;14.60;89.90;;;;;;5141090;27;20038;-79
2023/09/27 00:33:19;;;;;;;23.05;20.65;;;14.70;90.00;;;;;;5104753;27;20044;-79
2023/09/27 00:35:49;;;;;;;24.30;21.50;;;14.60;89.90;;;;;;5138998;27;20049;-78
2023/09/27 00:38:14;;;;;;;25.52;22.65;;;14.60;90.00;;;;;;5139783;27;20040;-79
2023/09/27 00:40:48;;;;;;;25.55;22.83;;;14.60;90.10;;;;;;5147614;27;20098;-79
2023/09/27 00:43:25;;;;;;;23.67;21.13;;;14.60;90.10;;;;;;5137623;27;20102;-78
2023/09/27 00:46:13;;;;;;;25.92;23.20;;;14.50;90.20;;;;;;5120391;27;20045;-78
2023/09/27 00:48:38;;;;;;;23.30;21.00;;;14.50;90.20;;;;;;5118274;27;20498;-77
2023/09/27 00:51:05;;;;;;;26.35;21.98;;;14.50;90.20;;;;;;5143072;27;20049;-79
2023/09/27 00:53:36;;;;;;;25.25;22.58;;;14.50;90.30;;;;;;5142112;27;20043;-78
2023/09/27 00:56:02;;;;;;;25.63;20.38;;;14.50;90.30;;;;;;5123425;27;20038;-78
2023/09/27 00:58:32;;;;;;;24.60;21.83;;;14.50;90.30;;;;;;5111469;27;20394;-77
2023/09/27 01:00:59;;;;;;;27.05;23.30;;;14.50;90.40;;;;;;5122106;27;20050;-79
2023/09/27 01:03:25;;;;;;;26.48;23.05;;;14.50;90.40;;;;;;5118727;27;20038;-79
2023/09/27 01:05:52;;;;;;;24.60;21.70;;;14.50;90.50;;;;;;5135876;27;20076;-77
2023/09/27 01:08:18;;;;;;;27.25;24.52;;;14.50;90.50;;;;;;5118697;27;20039;-79
2023/09/27 01:10:45;;;;;;;25.05;22.48;;;14.50;90.40;;;;;;5136187;27;20035;-78
2023/09/27 01:13:11;;;;;;;24.20;21.60;;;14.50;90.30;;;;;;5124384;27;20035;-78
2023/09/27 01:15:37;;;;;;;23.13;20.75;;;14.40;90.70;;;;;;5140264;27;20196;-80
2023/09/27 01:18:03;;;;;;;25.35;22.63;;;14.40;90.80;;;;;;5157002;27;20545;-79
2023/09/27 01:20:30;;;;;;;20.75;18.63;;;14.50;91.30;;;;;;5139766;27;20038;-78
2023/09/27 01:23:00;;;;;;;23.25;20.63;;;14.50;91.70;;;;;;5153744;27;20039;-79
2023/09/27 01:25:30;;;;;;;24.20;21.60;;;14.50;91.50;;;;;;5153687;27;20104;-78
2023/09/27 01:28:04;;;;;;;19.88;17.88;;;14.50;91.40;;;;;;5118853;27;20039;-78
2023/09/27 01:30:34;;;;;;;25.02;20.95;;;14.50;91.40;;;;;;5153068;27;20092;-78
2023/09/27 01:33:05;;;;;;;22.48;19.73;;;14.50;91.40;;;;;;5119731;27;20448;-78
2023/09/27 01:35:36;;;;;;;23.48;21.05;;;14.50;91.20;;;;;;5135990;27;20091;-81
2023/09/27 01:38:02;;;;;;;24.42;21.90;;;14.50;91.20;;;;;;5152919;27;20122;-80
2023/09/27 01:40:31;;;;;;;23.00;20.40;;;14.50;91.00;;;;;;5136905;27;20438;-78
2023/09/27 01:42:58;;;;;;;20.20;18.10;;;14.40;90.90;;;;;;5124723;27;20076;-78
2023/09/27 01:45:23;;;;;;;21.38;19.20;;;14.40;90.90;;;;;;5157925;27;20039;-78
2023/09/27 01:47:49;;;;;;;22.30;19.90;;;14.40;91.00;;;;;;5159266;27;20126;-77
2023/09/27 01:50:16;;;;;;;23.88;21.33;;;14.40;91.60;;;;;;5159252;27;20052;-78
2023/09/27 01:52:43;;;;;;;24.45;21.30;;;14.40;91.70;;;;;;5139513;27;20046;-80
2023/09/27 01:55:09;;;;;;;24.35;21.60;;;14.40;91.70;;;;;;5156561;27;20043;-79
2023/09/27 01:57:34;;;;;;;25.10;21.98;;;14.40;91.50;;;;;;5156802;27;20121;-80
2023/09/27 02:00:00;;;;;;;23.40;21.15;;;14.40;91.60;;;;;;5139785;27;20039;-79
2023/09/27 02:02:28;;;;;;;24.35;21.92;;;14.40;91.40;;;;;;5156162;27;20042;-79
2023/09/27 02:04:54;;;;;;;26.60;20.58;;;14.50;91.60;;;;;;5140061;27;20038;-79
2023/09/27 02:07:20;;;;;;;21.65;19.38;;;14.40;91.80;;;;;;5126982;27;20478;-78
2023/09/27 02:09:45;;;;;;;23.90;21.58;;;14.40;91.70;;;;;;5127868;27;20043;-79
2023/09/27 02:12:11;;;;;;;26.50;22.65;;;14.40;91.70;;;;;;5156465;27;20043;-78
2023/09/27 02:14:36;;;;;;;26.80;22.38;;;14.50;91.90;;;;;;5121754;27;20053;-80
2023/09/27 02:17:02;;;;;;;25.77;23.17;;;14.50;92.10;;;;;;5156063;27;20130;-79
2023/09/27 02:19:28;;;;;;;26.25;21.80;;;14.50;92.10;;;;;;5155907;27;20049;-78
2023/09/27 02:21:54;;;;;;;25.08;22.58;;;14.40;92.10;;;;;;5126469;27;20085;-80
2023/09/27 02:24:20;;;;;;;22.33;20.02;;;14.40;91.90;;;;;;5121532;27;20081;-80
2023/09/27 02:26:46;;;;;;;25.35;22.75;;;14.30;91.80;;;;;;5121779;27;20042;-79
2023/09/27 02:29:11;;;;;;;23.67;21.33;;;14.30;91.80;;;;;;5138535;27;20042;-78
2023/09/27 02:31:38;;;;;;;24.92;22.25;;;14.20;91.70;;;;;;5138681;27;20039;-79
2023/09/27 02:34:03;;;;;;;22.88;20.27;;;14.20;91.60;;;;;;5138354;27;20129;-79
2023/09/27 02:36:29;;;;;;;24.83;22.10;;;14.20;91.60;;;;;;5121500;27;20125;-79
2023/09/27 02:38:55;;;;;;;26.67;23.45;;;14.10;91.70;;;;;;5140225;27;20046;-78
2023/09/27 02:41:21;;;;;;;22.88;19.70;;;14.10;91.50;;;;;;5141889;27;20082;-78
2023/09/27 02:43:47;;;;;;;23.75;21.35;;;14.00;91.40;;;;;;5124847;27;20389;-79
2023/09/27 02:46:12;;;;;;;23.88;21.48;;;13.90;91.30;;;;;;5159060;27;20038;-77
2023/09/27 02:48:38;;;;;;;22.58;20.20;;;13.80;91.30;;;;;;5159110;27;20042;-79
2023/09/27 02:51:04;;;;;;;22.42;20.05;;;13.80;91.40;;;;;;5141389;27;20106;-79
2023/09/27 02:53:29;;;;;;;23.55;21.15;;;13.90;91.40;;;;;;5158496;27;20481;-78
2023/09/27 02:55:55;;;;;;;29.67;22.50;;;13.90;91.60;;;;;;5124306;27;20061;-80
2023/09/27 02:58:21;;;;;;;24.98;22.27;;;13.90;91.70;;;;;;5121459;27;20070;-79
2023/09/27 03:00:48;;;;;;;25.98;23.17;;;14.00;91.70;;;;;;5138063;27;20473;-78
2023/09/27 03:03:13;;;;;;;21.50;19.27;;;14.00;91.90;;;;;;5104134;27;20068;-77
2023/09/27 03:05:40;;;;;;;29.13;26.02;;;14.00;92.00;;;;;;5137928;27;20039;-80
2023/09/27 03:08:07;;;;;;;27.55;24.58;;;14.00;91.90;;;;;;5120995;27;20382;-77
2023/09/27 03:10:37;;;;;;;28.77;25.88;;;14.00;92.10;;;;;;5120962;27;20035;-79
2023/09/27 03:13:03;;;;;;;28.08;25.20;;;14.00;92.20;;;;;;5137487;27;20077;-79
2023/09/27 03:15:31;;;;;;;27.35;24.38;;;14.10;92.30;;;;;;5137514;27;20501;-78
2023/09/27 03:17:57;;;;;;;28.48;25.35;;;14.10;92.50;;;;;;5121150;27;20129;-78
2023/09/27 03:20:22;;;;;;;31.13;27.17;;;14.00;92.50;;;;;;5120333;27;20525;-78
2023/09/27 03:22:49;;;;;;;27.65;24.90;;;14.10;92.40;;;;;;5120171;27;20146;-78
2023/09/27 03:25:18;;;;;;;28.77;25.85;;;14.10;92.40;;;;;;5137974;27;20045;-79
2023/09/27 03:27:44;;;;;;;32.47;29.02;;;14.10;93.00;;;;;;5137913;27;20431;-79
2023/09/27 03:30:10;;;;;;;29.77;26.70;;;14.00;93.00;;;;;;5136775;27;20109;-79
2023/09/27 03:32:36;;;;;;;30.52;26.42;;;14.00;93.00;;;;;;5158255;27;20046;-80
2023/09/27 03:35:02;;;;;;;24.42;22.08;;;14.00;93.00;;;;;;5158152;27;20124;-78
2023/09/27 03:37:28;;;;;;;30.48;27.25;;;14.00;92.80;;;;;;5140989;27;20038;-78
2023/09/27 03:39:55;;;;;;;29.08;26.17;;;14.00;93.00;;;;;;5158040;27;20049;-79
2023/09/27 03:42:22;;;;;;;30.17;27.10;;;14.00;93.00;;;;;;5140338;27;20038;-81
2023/09/27 03:44:51;;;;;;;31.23;27.92;;;14.00;93.10;;;;;;5140582;27;20048;-79
2023/09/27 03:47:17;;;;;;;27.58;24.65;;;14.00;93.20;;;;;;5156398;27;20046;-80
2023/09/27 03:49:43;;;;;;;28.38;25.00;;;13.90;93.20;;;;;;5157859;27;20034;-78
2023/09/27 03:52:09;;;;;;;30.45;27.20;;;13.90;93.10;;;;;;5157481;27;20038;-79
2023/09/27 03:54:35;;;;;;;29.23;26.05;;;14.00;93.20;;;;;;5123530;27;20041;-78
2023/09/27 03:57:00;;;;;;;27.10;24.42;;;13.90;93.30;;;;;;5157808;27;20557;-77
2023/09/27 03:59:26;;;;;;;26.30;23.55;;;13.90;93.40;;;;;;5157541;27;20489;-78
2023/09/27 04:01:52;;;;;;;29.35;26.25;;;13.90;93.30;;;;;;5135660;27;20117;-79
2023/09/27 04:04:18;;;;;;;31.08;26.30;;;13.90;93.20;;;;;;5118868;27;20131;-79
2023/09/27 04:06:44;;;;;;;31.83;28.45;;;13.90;93.30;;;;;;5119510;27;20030;-80
2023/09/27 04:09:10;;;;;;;30.13;26.92;;;13.90;93.40;;;;;;5136984;27;20034;-79
2023/09/27 04:11:37;;;;;;;27.83;24.92;;;13.90;93.30;;;;;;5124057;27;20046;-79
2023/09/27 04:14:06;;;;;;;34.33;30.60;;;13.90;93.40;;;;;;5106357;27;20043;-80
2023/09/27 04:16:32;;;;;;;28.80;25.88;;;13.90;93.70;;;;;;5121649;27;20042;-81
2023/09/27 04:18:58;;;;;;;35.22;30.80;;;13.90;93.50;;;;;;5137500;27;20053;-79
2023/09/27 04:21:27;;;;;;;37.30;30.00;;;13.90;93.40;;;;;;5139885;27;20034;-81
2023/09/27 04:23:55;;;;;;;36.88;31.52;;;13.90;93.70;;;;;;5140017;27;20038;-79
2023/09/27 04:26:23;;;;;;;37.53;33.45;;;13.90;93.80;;;;;;5140071;27;20370;-81
2023/09/27 04:28:50;;;;;;;42.53;35.03;;;13.80;93.70;;;;;;5157096;27;20042;-79
2023/09/27 04:31:16;;;;;;;40.40;32.97;;;13.80;94.10;;;;;;5156788;27;20049;-80
2023/09/27 04:33:44;;;;;;;40.75;35.03;;;13.80;94.20;;;;;;5156892;27;20129;-80
2023/09/27 04:36:17;;;;;;;38.28;33.45;;;13.80;94.20;;;;;;5157018;27;20034;-77
2023/09/27 04:38:46;;;;;;;44.80;35.50;;;13.80;94.40;;;;;;5155042;27;20381;-80
2023/09/27 04:41:17;;;;;;;44.83;37.05;;;13.70;95.00;;;;;;5140563;27;20371;-78
2023/09/27 04:43:46;;;;;;;38.70;34.53;;;13.70;94.80;;;;;;5157571;27;20045;-79
2023/09/27 04:46:13;;;;;;;45.75;37.60;;;13.70;94.90;;;;;;5157650;27;20073;-81
2023/09/27 04:48:39;;;;;;;43.38;34.28;;;13.60;95.10;;;;;;5157748;27;20065;-79
2023/09/27 04:51:05;;;;;;;37.92;33.65;;;13.60;94.90;;;;;;5140487;27;20467;-80
2023/09/27 04:53:34;;;;;;;30.70;27.52;;;13.60;95.00;;;;;;5157502;27;20492;-77
2023/09/27 04:56:02;;;;;;;38.60;34.40;;;13.60;94.80;;;;;;5128777;27;20076;-76
2023/09/27 04:58:27;;;;;;;41.95;35.53;;;13.60;94.80;;;;;;5136437;27;20054;-79
2023/09/27 05:00:53;;;;;;;38.13;33.63;;;13.60;94.70;;;;;;5136568;27;20042;-77
2023/09/27 05:03:19;;;;;;;40.25;35.33;;;13.60;94.60;;;;;;5137182;27;20034;-78
2023/09/27 05:05:44;;;;;;;35.58;31.80;;;13.60;94.60;;;;;;5140014;27;20026;-78
2023/09/27 05:08:10;;;;;;;43.80;33.60;;;13.60;94.60;;;;;;5121715;27;20034;-77
2023/09/27 05:10:36;;;;;;;35.00;31.35;;;13.60;94.60;;;;;;5157395;27;20125;-80
2023/09/27 05:13:03;;;;;;;39.00;33.28;;;13.60;94.60;;;;;;5118465;27;20415;-80
2023/09/27 05:15:29;;;;;;;41.38;33.30;;;13.50;94.60;;;;;;5135530;27;20042;-78
2023/09/27 05:17:55;;;;;;;39.63;33.92;;;13.50;94.50;;;;;;5143872;27;20052;-80
2023/09/27 05:20:20;;;;;;;41.75;34.05;;;13.50;94.50;;;;;;5160912;27;20419;-79
2023/09/27 05:22:46;;;;;;;41.33;33.75;;;13.50;94.60;;;;;;5159754;27;20050;-82
2023/09/27 05:25:13;;;;;;;41.58;36.30;;;13.50;94.60;;;;;;5142821;27;20046;-79
2023/09/27 05:27:39;;;;;;;34.95;31.17;;;13.50;94.60;;;;;;5133185;27;20035;-79
2023/09/27 05:30:07;;;;;;;40.22;32.83;;;13.50;94.60;;;;;;5139797;27;20041;-79
2023/09/27 05:32:33;;;;;;;30.90;27.67;;;13.40;94.50;;;;;;5139754;27;20054;-77
2023/09/27 05:34:59;;;;;;;26.88;23.77;;;13.40;94.40;;;;;;5088460;27;20039;-79
2023/09/27 05:37:25;;;;;;;23.85;21.45;;;13.20;94.20;;;;;;5122586;27;20049;-79
2023/09/27 05:39:50;;;;;;;35.25;30.90;;;13.20;94.30;;;;;;5139651;27;20042;-80
2023/09/27 05:42:16;;;;;;;31.02;27.73;;;13.10;94.40;;;;;;5139621;27;20470;-80
2023/09/27 05:44:42;;;;;;;32.63;29.17;;;13.20;94.70;;;;;;5160315;27;20507;-79
2023/09/27 05:47:07;;;;;;;35.25;31.23;;;13.20;94.70;;;;;;5142665;27;20184;-77
2023/09/27 05:49:34;;;;;;;38.80;34.47;;;13.20;94.80;;;;;;5142804;27;20117;-77
2023/09/27 05:51:59;;;;;;;39.42;32.53;;;13.20;94.70;;;;;;5159884;27;20042;-80
2023/09/27 05:54:25;;;;;;;40.97;35.30;;;13.30;94.70;;;;;;5159770;27;20056;-82
2023/09/27 05:56:54;;;;;;;35.17;31.38;;;13.30;94.70;;;;;;5122806;27;20034;-80
2023/09/27 05:59:19;;;;;;;36.58;31.27;;;13.30;94.70;;;;;;5139051;27;20091;-80
2023/09/27 06:01:47;;;;;;;41.25;34.25;;;13.30;94.50;;;;;;5138788;27;20046;-78
2023/09/27 06:04:16;;;;;;;35.30;31.50;;;13.30;94.60;;;;;;5139020;27;20039;-80
2023/09/27 06:06:42;;;;;;;41.55;34.15;;;13.30;94.60;;;;;;5121801;27;20035;-79
2023/09/27 06:09:09;;;;;;;36.67;29.08;;;13.30;94.40;;;;;;5121732;27;20099;-76
2023/09/27 06:11:35;;;;;;;30.38;27.05;;;13.30;94.50;;;;;;5121843;27;20050;-82
2023/09/27 06:14:01;;;;;;;36.10;31.85;;;13.20;94.50;;;;;;5138355;27;20134;-81
2023/09/27 06:16:27;;;;;;;35.80;31.90;;;13.30;94.50;;;;;;5121669;27;20530;-78
2023/09/27 06:18:53;;;;;;;36.03;31.08;;;13.20;94.60;;;;;;5138718;27;20122;-83
2023/09/27 06:21:19;;;;;;;36.92;32.97;;;13.30;94.60;;;;;;5121409;27;20490;-78
2023/09/27 06:23:45;;;;;;;36.38;31.42;;;13.40;94.50;;;;;;5121396;27;20406;-78
2023/09/27 06:26:10;;;;;;;33.03;29.48;;;13.40;94.60;;;;;;5120555;27;20041;-79
2023/09/27 06:28:38;;;;;;;29.67;26.48;;;13.50;94.60;;;;;;5121719;27;20034;-81
2023/09/27 06:31:06;;;;;;;36.55;30.50;;;13.50;94.70;;;;;;5137824;27;20042;-80
2023/09/27 06:33:46;;;;;;;29.33;26.15;;;13.50;94.60;;;;;;5121119;27;20035;-79
2023/09/27 06:36:11;;;;;;;35.85;31.20;;;13.50;94.50;;;;;;5138681;27;20042;-78
2023/09/27 06:38:37;;;;;;;35.90;31.95;;;13.60;94.40;;;;;;5121468;27;20038;-79
2023/09/27 06:41:03;;;;;;;41.38;36.67;;;13.70;94.40;;;;;;5121225;27;20045;-75
2023/09/27 06:43:31;;;;;;;42.60;35.17;;;13.80;94.70;;;;;;5138393;27;20498;-81
2023/09/27 06:46:01;;;;;;;36.13;32.22;;;13.80;94.70;;;;;;5137361;27;20171;-77
2023/09/27 06:48:27;;;;;;;39.33;34.53;;;13.90;94.60;;;;;;5138066;27;20042;-80
2023/09/27 06:50:53;;;;;;;37.00;33.00;;;14.00;94.70;;;;;;5138528;27;20423;-78
2023/09/27 06:53:20;;;;;;;41.28;35.20;;;14.00;94.70;;;;;;5103729;27;20038;-78
2023/09/27 06:55:46;;;;;;;38.60;33.17;;;14.10;94.80;;;;;;5104319;27;20430;-77
2023/09/27 06:58:13;;;;;;;34.40;29.83;;;14.10;94.90;;;;;;5137847;27;20136;-79
2023/09/27 07:00:42;;;;;;;37.03;33.03;;;14.20;94.60;;;;;;5138080;27;20121;-78
2023/09/27 07:03:08;;;;;;;42.13;36.13;;;14.30;94.60;;;;;;5137350;27;20070;-80
2023/09/27 07:05:35;;;;;;;36.58;31.50;;;14.40;94.80;;;;;;5158513;27;20130;-78
2023/09/27 07:08:01;;;;;;;37.30;33.25;;;14.40;94.90;;;;;;5158651;27;20477;-80
2023/09/27 07:10:27;;;;;;;42.70;34.95;;;14.50;94.60;;;;;;5158332;27;20082;-78
2023/09/27 07:12:53;;;;;;;39.63;32.05;;;14.60;94.70;;;;;;5158454;27;20038;-81
2023/09/27 07:15:19;;;;;;;43.88;36.83;;;14.60;94.70;;;;;;5158353;27;20042;-79
2023/09/27 07:17:44;;;;;;;44.55;37.00;;;14.80;94.70;;;;;;5141257;27;20046;-80
2023/09/27 07:22:44;;;;;;;36.42;31.00;;;14.90;95.20;;;;;;5157932;27;20554;-79
2023/09/27 07:25:16;;;;;;;36.85;30.60;;;14.90;95.00;;;;;;5158386;27;20042;-79
2023/09/27 07:27:42;;;;;;;36.95;33.00;;;15.00;94.60;;;;;;5158452;27;20046;-80
2023/09/27 07:30:11;;;;;;;41.83;36.42;;;15.00;94.50;;;;;;5158617;27;20034;-76
2023/09/27 07:32:39;;;;;;;43.72;37.30;;;15.10;94.50;;;;;;5158828;27;20046;-81
2023/09/27 07:35:09;;;;;;;45.05;38.63;;;15.10;94.50;;;;;;5158949;27;20046;-80
2023/09/27 07:37:39;;;;;;;49.00;38.65;;;15.20;94.50;;;;;;5157053;27;20095;-80
2023/09/27 07:40:11;;;;;;;40.42;35.95;;;15.20;94.50;;;;;;5157789;27;20045;-80
2023/09/27 07:42:42;;;;;;;42.50;34.10;;;15.30;94.70;;;;;;5157872;27;20034;-81
2023/09/27 07:45:15;;;;;;;41.78;37.30;;;15.30;94.70;;;;;;5157774;27;20038;-83
2023/09/27 07:47:42;;;;;;;39.70;35.50;;;15.40;94.70;;;;;;5140715;27;20041;-82
2023/09/27 07:50:10;;;;;;;41.33;34.22;;;15.40;94.50;;;;;;5140566;27;20041;-80
2023/09/27 07:52:37;;;;;;;42.42;35.25;;;15.40;94.60;;;;;;5139365;27;20038;-77
2023/09/27 07:55:04;;;;;;;42.33;36.08;;;15.50;94.60;;;;;;5157774;27;20042;-79
2023/09/27 07:57:31;;;;;;;38.78;34.65;;;15.60;94.60;;;;;;5157587;27;20046;-81
2023/09/27 07:59:57;;;;;;;36.15;32.30;;;15.80;94.60;;;;;;5157523;27;20049;-81
2023/09/27 08:02:22;;;;;;;40.38;35.45;;;15.90;94.60;;;;;;5123054;27;20034;-80
2023/09/27 08:04:49;;;;;;;41.00;36.45;;;16.00;94.60;;;;;;5157402;27;20494;-80
2023/09/27 08:07:15;;;;;;;40.65;35.97;;;16.00;94.60;;;;;;5157692;27;20385;-79
2023/09/27 08:09:42;;;;;;;41.15;35.97;;;16.10;94.80;;;;;;5139105;27;20117;-82
2023/09/27 08:12:07;;;;;;;39.65;35.40;;;16.20;94.80;;;;;;5123339;27;20046;-79
2023/09/27 08:14:36;;;;;;;44.58;36.58;;;16.30;94.60;;;;;;5139849;27;20396;-81
2023/09/27 08:17:02;;;;;;;37.22;33.47;;;16.30;94.70;;;;;;5157512;27;20489;-79
2023/09/27 08:19:30;;;;;;;45.90;35.88;;;16.40;94.80;;;;;;5140028;27;20048;-78
2023/09/27 08:21:56;;;;;;;41.67;34.58;;;16.50;94.70;;;;;;5156798;27;20500;-78
2023/09/27 08:24:22;;;;;;;43.28;35.92;;;16.50;94.80;;;;;;5140172;27;20034;-79
2023/09/27 08:26:48;;;;;;;38.95;34.15;;;16.60;94.50;;;;;;5155682;27;20143;-81
2023/09/27 08:29:14;;;;;;;41.38;36.90;;;16.70;94.40;;;;;;5139836;27;20118;-79
2023/09/27 08:31:42;;;;;;;45.25;36.78;;;16.80;94.40;;;;;;5123013;27;20077;-82
2023/09/27 08:34:08;;;;;;;44.65;37.33;;;16.90;94.50;;;;;;5156878;27;20073;-79
2023/09/27 08:36:33;;;;;;;43.65;35.08;;;17.00;94.30;;;;;;5139729;27;20042;-82
2023/09/27 08:38:59;;;;;;;40.58;35.58;;;17.10;94.30;;;;;;5139694;27;20034;-81
2023/09/27 08:41:25;;;;;;;39.92;34.88;;;17.20;94.40;;;;;;5139778;27;20034;-82
2023/09/27 08:43:51;;;;;;;39.35;34.40;;;17.30;94.30;;;;;;5134592;27;20042;-81
2023/09/27 08:46:21;;;;;;;41.20;32.17;;;17.40;94.10;;;;;;5119531;27;20057;-81
2023/09/27 08:48:48;;;;;;;35.92;31.08;;;17.50;94.10;;;;;;5119608;27;20040;-81
2023/09/27 08:51:14;;;;;;;36.40;32.42;;;17.50;93.70;;;;;;5140692;27;20038;-82
2023/09/27 08:53:42;;;;;;;38.03;33.22;;;17.60;93.80;;;;;;5140697;27;20542;-82
2023/09/27 08:56:12;;;;;;;36.60;32.70;;;17.70;93.50;;;;;;5140337;27;20050;-81
2023/09/27 08:58:39;;;;;;;34.42;29.25;;;17.70;93.60;;;;;;5123339;27;20046;-83
2023/09/27 09:01:09;;;;;;;36.38;28.95;;;17.80;93.70;;;;;;5138204;27;20059;-81
2023/09/27 09:03:37;;;;;;;35.08;28.73;;;17.90;93.60;;;;;;5160992;27;20478;-80
2023/09/27 09:06:07;;;;;;;38.40;29.70;;;18.00;93.40;;;;;;5161417;27;20034;-83
2023/09/27 09:08:43;;;;;;;36.55;28.05;;;18.10;93.30;;;;;;5145388;27;20042;-78
2023/09/27 09:11:10;;;;;;;34.28;28.98;;;18.20;93.20;;;;;;5161410;27;20049;-81
2023/09/27 09:14:04;;;;;;;32.35;27.48;;;18.40;93.10;;;;;;5143872;27;20125;-82
2023/09/27 09:16:39;;;;;;;35.65;27.90;;;18.40;92.90;;;;;;5161266;27;20362;-80
2023/09/27 09:19:24;;;;;;;35.60;28.50;;;18.50;92.80;;;;;;5159648;27;20038;-82
2023/09/27 09:22:08;;;;;;;32.28;28.83;;;18.60;92.70;;;;;;5159998;27;20378;-81
2023/09/27 09:24:43;;;;;;;31.40;28.08;;;18.70;92.50;;;;;;5161187;27;20043;-82
2023/09/27 09:27:16;;;;;;;33.30;27.30;;;18.80;92.40;;;;;;5143328;27;20431;-77
2023/09/27 09:29:49;;;;;;;30.88;24.52;;;18.90;92.30;;;;;;5165544;27;20030;-79
2023/09/27 09:32:18;;;;;;;37.85;26.17;;;19.00;92.10;;;;;;5168698;27;20088;-79
2023/09/27 09:34:45;;;;;;;28.80;24.02;;;19.00;91.90;;;;;;5186762;27;20070;-79
2023/09/27 09:37:20;;;;;;;27.00;23.95;;;19.00;91.60;;;;;;5186964;27;20022;-79
2023/09/27 09:39:48;;;;;;;31.55;25.10;;;19.10;91.60;;;;;;5186946;27;20033;-80
2023/09/27 09:42:28;;;;;;;31.38;23.95;;;19.10;91.40;;;;;;5169649;27;20034;-79
2023/09/27 09:45:00;;;;;;;31.92;23.20;;;19.20;91.60;;;;;;5187008;27;20093;-80
2023/09/27 09:47:30;;;;;;;34.33;23.17;;;19.20;91.00;;;;;;5186771;27;20075;-79
2023/09/27 09:49:55;;;;;;;26.40;22.98;;;19.20;91.20;;;;;;5186705;27;20022;-80
2023/09/27 09:52:28;;;;;;;27.40;21.35;;;19.10;90.40;;;;;;5169221;27;20066;-79
2023/09/27 09:54:57;;;;;;;30.17;24.65;;;19.10;90.50;;;;;;5169136;27;20082;-80
2023/09/27 09:57:36;;;;;;;30.80;24.27;;;19.10;91.00;;;;;;5186485;27;20033;-78
2023/09/27 10:00:13;;;;;;;34.97;27.35;;;19.10;91.00;;;;;;5186566;27;20185;-79
2023/09/27 10:02:51;;;;;;;34.10;26.33;;;19.00;90.80;;;;;;5169005;27;20049;-77
2023/09/27 10:05:21;;;;;;;30.58;22.38;;;19.00;91.20;;;;;;5186330;27;20015;-78
2023/09/27 10:07:48;;;;;;;27.83;22.35;;;19.00;91.20;;;;;;5185967;27;20077;-80
2023/09/27 10:10:17;;;;;;;26.85;21.77;;;18.90;90.70;;;;;;5185913;27;20070;-79
2023/09/27 10:12:45;;;;;;;30.90;21.88;;;18.90;91.00;;;;;;5168697;27;20043;-78
2023/09/27 10:15:11;;;;;;;29.20;20.75;;;19.00;90.90;;;;;;5169068;27;20042;-79
2023/09/27 10:17:37;;;;;;;29.05;23.88;;;19.00;91.00;;;;;;5182813;27;20049;-80
2023/09/27 10:20:14;;;;;;;29.58;24.50;;;19.00;90.90;;;;;;5179701;27;20057;-79
2023/09/27 10:22:45;;;;;;;33.00;23.67;;;19.00;90.70;;;;;;5176084;27;20109;-79
2023/09/27 10:25:26;;;;;;;24.77;21.45;;;19.00;90.90;;;;;;5181176;27;20057;-82
2023/09/27 10:28:01;;;;;;;27.20;20.73;;;19.00;90.70;;;;;;5173851;27;20041;-81
2023/09/27 10:30:45;;;;;;;28.60;20.42;;;19.10;90.60;;;;;;5155152;27;20038;-81
2023/09/27 10:33:16;;;;;;;26.47;21.27;;;19.00;90.20;;;;;;5179882;27;20026;-81
2023/09/27 10:35:46;;;;;;;27.50;20.75;;;19.10;90.50;;;;;;5184819;27;20026;-80
2023/09/27 10:38:13;;;;;;;28.65;22.67;;;19.10;90.50;;;;;;5184449;27;20129;-80
2023/09/27 10:40:43;;;;;;;25.38;21.55;;;19.20;90.50;;;;;;5184631;27;20030;-81
2023/09/27 10:43:10;;;;;;;30.23;20.63;;;19.20;90.40;;;;;;5150530;27;20026;-82
2023/09/27 10:45:35;;;;;;;26.10;19.52;;;19.30;90.40;;;;;;5164587;27;20031;-79
2023/09/27 10:48:19;;;;;;;24.63;19.27;;;19.40;90.10;;;;;;5165464;27;20037;-80
2023/09/27 10:50:58;;;;;;;26.15;18.20;;;19.30;89.50;;;;;;5167556;27;20022;-80
2023/09/27 10:53:27;;;;;;;32.28;20.48;;;19.20;88.70;;;;;;5165101;27;20030;-81
2023/09/27 10:55:53;;;;;;;26.65;19.67;;;19.30;89.20;;;;;;5183320;27;20070;-81
2023/09/27 10:58:19;;;;;;;24.33;20.33;;;19.30;89.10;;;;;;5148660;27;20093;-80
2023/09/27 11:00:57;;;;;;;25.52;19.38;;;19.30;89.10;;;;;;5167582;27;20026;-83
2023/09/27 11:03:33;;;;;;;27.17;19.75;;;19.30;89.30;;;;;;5168122;27;20042;-80
2023/09/27 11:06:08;;;;;;;26.17;19.02;;;19.30;89.20;;;;;;5141440;27;20130;-82
2023/09/27 11:08:34;;;;;;;23.92;17.40;;;19.30;89.10;;;;;;5141368;27;20121;-82
2023/09/27 11:10:59;;;;;;;23.08;17.33;;;19.30;89.20;;;;;;5124010;27;20129;-81
2023/09/27 11:13:29;;;;;;;23.67;18.42;;;19.30;89.20;;;;;;5141092;27;20084;-82
2023/09/27 11:16:07;;;;;;;25.15;17.42;;;19.30;88.50;;;;;;5141128;27;20034;-81
2023/09/27 11:18:34;;;;;;;23.05;17.85;;;19.30;88.90;;;;;;5141259;27;20094;-81
2023/09/27 11:21:09;;;;;;;24.03;17.33;;;19.30;88.80;;;;;;5141158;27;20042;-81
2023/09/27 11:23:57;;;;;;;21.92;17.73;;;19.30;88.50;;;;;;5123783;27;20046;-83
2023/09/27 11:26:24;;;;;;;23.20;17.85;;;19.30;88.30;;;;;;5158221;27;20050;-82
2023/09/27 11:29:04;;;;;;;24.88;16.58;;;19.30;88.80;;;;;;5158466;27;20038;-82
2023/09/27 11:31:35;;;;;;;24.42;16.00;;;19.30;88.50;;;;;;5161652;27;20118;-84
2023/09/27 11:34:18;;;;;;;21.92;16.52;;;19.40;88.30;;;;;;5143123;27;20038;-81
2023/09/27 11:36:44;;;;;;;18.88;14.60;;;19.40;88.40;;;;;;5124779;27;20035;-84
2023/09/27 11:39:10;;;;;;;20.83;14.55;;;19.40;88.20;;;;;;5141236;27;20038;-83
2023/09/27 11:41:37;;;;;;;16.73;13.40;;;19.50;87.70;;;;;;5149644;27;20046;-83
2023/09/27 11:44:25;;;;;;;16.40;12.73;;;19.70;87.50;;;;;;5149151;27;20482;-85
2023/09/27 11:47:12;;;;;;;24.20;15.30;;;19.90;87.00;;;;;;5150022;27;20038;-83
2023/09/27 11:49:37;;;;;;;20.23;16.08;;;19.90;86.30;;;;;;5131455;27;20046;-82
2023/09/27 11:52:11;;;;;;;18.77;13.27;;;20.00;86.40;;;;;;5146535;27;20049;-78
2023/09/27 11:54:45;;;;;;;23.80;14.05;;;20.10;86.80;;;;;;5145063;27;20038;-81
2023/09/27 11:57:10;;;;;;;23.17;14.50;;;20.30;86.40;;;;;;5144631;27;20042;-79
2023/09/27 11:59:39;;;;;;;18.85;14.60;;;20.50;85.70;;;;;;5129947;27;20132;-82
2023/09/27 12:02:08;;;;;;;19.73;12.90;;;20.90;85.10;;;;;;5159613;27;20044;-81
2023/09/27 12:04:34;;;;;;;21.02;14.55;;;21.40;84.60;;;;;;5140119;27;20439;-83
2023/09/27 12:07:00;;;;;;;19.08;11.88;;;21.80;83.00;;;;;;5140359;27;20034;-83
2023/09/27 12:09:26;;;;;;;21.30;12.77;;;22.20;82.40;;;;;;5140691;27;20030;-83
2023/09/27 12:11:52;;;;;;;17.90;10.65;;;22.40;80.80;;;;;;5157750;27;20098;-85
2023/09/27 12:14:17;;;;;;;14.23;10.20;;;22.50;79.20;;;;;;5124594;27;20038;-81
2023/09/27 12:16:43;;;;;;;13.15;9.55;;;22.90;79.10;;;;;;5106947;27;20087;-86
2023/09/27 12:19:09;;;;;;;11.95;9.40;;;22.80;78.50;;;;;;5107044;27;20478;-86
2023/09/27 12:21:36;;;;;;;14.63;10.18;;;23.00;78.00;;;;;;5106787;27;20461;-83
2023/09/27 12:24:05;;;;;;;17.48;9.70;;;23.30;77.50;;;;;;5139560;27;20047;-84
2023/09/27 12:26:31;;;;;;;11.32;9.73;;;23.40;77.10;;;;;;5122915;27;20122;-81
2023/09/27 12:28:57;;;;;;;12.10;9.32;;;23.70;77.20;;;;;;5121152;27;20105;-79
2023/09/27 12:31:24;;;;;;;14.85;10.02;;;23.90;76.50;;;;;;5088676;27;20149;-83
2023/09/27 12:33:49;;;;;;;13.00;8.13;;;24.10;73.30;;;;;;5132503;27;20034;-85
2023/09/27 12:36:15;;;;;;;11.23;7.72;;;24.40;74.20;;;;;;5131036;27;20145;-80